createdAt,value
2023-07-27T00:00:55.197Z,14.102609846895982
2023-07-27T00:06:32.295Z,14.05971188129195
2023-07-27T00:12:38.751Z,14.051837772651007
2023-07-27T00:15:58.233Z,14.023580379614105
2023-07-27T00:19:18.106Z,14.000855966862423
2023-07-27T00:23:17.742Z,13.959848206795316
2023-07-27T00:26:37.720Z,13.890786231124167
2023-07-27T00:29:57.728Z,13.890299916107388
2023-07-27T00:35:23.581Z,13.889649748322155
2023-07-27T00:39:17.818Z,13.894910077600683
2023-07-27T00:44:58.842Z,13.86397860738256
2023-07-27T00:48:18.912Z,13.838855390100681
2023-07-27T00:51:38.173Z,13.788455589345626
2023-07-27T00:54:57.824Z,13.801696203859066
2023-07-27T00:58:17.641Z,13.757554268036907
2023-07-27T01:01:37.540Z,13.668858798238238
2023-07-27T01:04:56.913Z,13.699479603607367
2023-07-27T01:08:16.485Z,13.705508074664422
2023-07-27T01:14:10.866Z,13.723024591023481
2023-07-27T01:17:30.992Z,13.752928376677845
2023-07-27T01:20:50.734Z,13.754855285234886
2023-07-27T01:26:37.621Z,13.693398699664419
2023-07-27T01:29:57.580Z,13.744088192114083
2023-07-27T01:33:33.874Z,13.794463087248332
2023-07-27T01:36:53.858Z,13.81807885906041
2023-07-27T01:41:04.945Z,13.83683148070471
2023-07-27T01:44:24.158Z,13.80565095427853
2023-07-27T01:47:44.040Z,13.868271549916109
2023-07-27T01:51:03.530Z,13.94056732382551
2023-07-27T01:54:22.970Z,13.931835937500015
2023-07-27T01:57:43.382Z,13.978617869127518
2023-07-27T02:01:02.795Z,14.017431312919461
2023-07-27T02:04:22.880Z,14.012772651006722
2023-07-27T02:07:42.214Z,14.050620018875845
2023-07-27T02:11:01.710Z,14.057450713087253
2023-07-27T02:14:21.715Z,13.993262374161086
2023-07-27T02:17:41.568Z,14.007875419463094
2023-07-27T02:21:00.767Z,14.0255361262584
2023-07-27T02:24:20.255Z,14.033643561241622
2023-07-27T02:28:02.142Z,14.019512898489943
2023-07-27T02:31:26.327Z,13.952651793204708
2023-07-27T02:34:46.326Z,13.904594431627535
2023-07-27T02:38:05.516Z,13.922474045721488
2023-07-27T02:41:25.851Z,13.925768141778526
2023-07-27T02:45:01.634Z,13.925671140939604
2023-07-27T02:48:22.006Z,13.953442218959744
2023-07-27T02:51:58.574Z,13.93130898699665
2023-07-27T02:55:18.044Z,13.893322671979869
2023-07-27T02:58:37.812Z,13.951722420302026
2023-07-27T03:01:57.670Z,13.969390992030203
2023-07-27T03:05:16.666Z,13.986944211409401
2023-07-27T03:09:22.235Z,13.988300912332221
2023-07-27T03:12:42.342Z,14.031914586828865
2023-07-27T03:16:02.207Z,14.048002307046985
2023-07-27T03:19:22.953Z,14.04111524748322
2023-07-27T03:23:20.390Z,14.063458210989937
2023-07-27T03:26:40.180Z,14.044291369546993
2023-07-27T03:29:59.252Z,14.005501520553702
2023-07-27T03:33:19.201Z,14.027410601929532
2023-07-27T03:36:39.235Z,14.021143561241622
2023-07-27T03:41:35.938Z,14.040904205117462
2023-07-27T03:44:55.120Z,13.98731779572149
2023-07-27T03:48:14.192Z,13.994004299496652
2023-07-27T03:51:33.718Z,14.007989460989949
2023-07-27T03:55:55.982Z,14.003672923657724
2023-07-27T04:00:03.010Z,14.010750052432897
2023-07-27T04:03:22.949Z,13.966027422399335
2023-07-27T04:06:43.108Z,13.965931732382556
2023-07-27T04:10:02.727Z,13.9846882864933
2023-07-27T04:16:11.239Z,14.040233064177857
2023-07-27T04:19:31.071Z,14.064535706795303
2023-07-27T04:24:17.584Z,14.128464502936245
2023-07-27T04:29:58.267Z,14.162838192114098
2023-07-27T04:33:17.650Z,14.11862416107383
2023-07-27T04:38:54.245Z,14.059260958473153
2023-07-27T04:42:13.910Z,14.062087091023502
2023-07-27T04:53:28.239Z,13.9600487625839
2023-07-27T04:57:34.323Z,14.082653890520143
2023-07-27T05:00:54.521Z,14.142812762164438
2023-07-27T05:04:13.986Z,14.163008598993299
2023-07-27T05:07:33.918Z,14.130196098993284
2023-07-27T05:10:53.767Z,14.20437290268457
2023-07-27T05:14:13.073Z,14.228106648489947
2023-07-27T05:17:32.680Z,14.289210622902688
2023-07-27T05:20:52.521Z,14.364786073825504
2023-07-27T05:24:12.539Z,14.37577731753355
2023-07-27T05:27:32.530Z,14.415436241610742
2023-07-27T05:33:20.974Z,14.456550178271822
2023-07-27T05:36:40.451Z,14.486080379614098
2023-07-27T05:40:00.469Z,14.526496958892618
2023-07-27T05:44:07.751Z,14.594418519295292
2023-07-27T05:49:37.975Z,14.684987153942958
2023-07-27T05:52:57.745Z,14.637237835570465
2023-07-27T05:56:16.950Z,14.63298946098994
2023-07-27T05:59:36.890Z,14.619228450083895
2023-07-27T06:02:56.594Z,14.591305316694628
2023-07-27T06:06:16.266Z,14.569624318372478
2023-07-27T06:09:35.414Z,14.5535130033557
2023-07-27T06:12:55.538Z,14.528604760906033
2023-07-27T06:16:14.913Z,14.558218854865773
2023-07-27T06:19:35.084Z,14.552379142197985
2023-07-27T06:22:55.168Z,14.597411126258377
2023-07-27T06:26:14.972Z,14.683161178691272
2023-07-27T06:29:33.986Z,14.736161650587237
2023-07-27T06:32:53.942Z,14.789648437499988
2023-07-27T06:36:13.024Z,14.788696780620791
2023-07-27T06:39:32.871Z,14.79553927223153
2023-07-27T06:42:53.359Z,14.814683829697985
2023-07-27T06:46:13.047Z,14.80452495805368
2023-07-27T06:49:32.208Z,14.788975985738245
2023-07-27T06:52:51.604Z,14.873281512164422
2023-07-27T06:56:11.261Z,14.90089135906039
2023-07-27T06:59:30.749Z,14.93807414010066
2023-07-27T07:02:51.351Z,14.957031249999979
2023-07-27T07:06:11.015Z,14.961752831375824
2023-07-27T07:09:30.288Z,14.89695102768454
2023-07-27T07:12:50.381Z,14.930818739513418
2023-07-27T07:16:09.748Z,14.988590604026838
2023-07-27T07:19:28.595Z,14.964335151006702
2023-07-27T07:22:48.388Z,14.968770973154351
2023-07-27T07:26:07.971Z,14.95276714555368
2023-07-27T07:29:27.144Z,15.027090761325521
2023-07-27T07:32:46.770Z,15.028265257969787
2023-07-27T07:36:51.235Z,15.167120648070485
2023-07-27T07:40:11.342Z,15.174449454697992
2023-07-27T07:43:31.017Z,15.152021287751685
2023-07-27T07:46:50.316Z,15.208005190855717
2023-07-27T07:50:10.192Z,15.224479603607392
2023-07-27T07:53:35.532Z,15.179620648070486
2023-07-27T07:56:55.556Z,15.257889838506713
2023-07-27T08:00:14.944Z,15.320325608221482
2023-07-27T08:03:33.807Z,15.324720794882548
2023-07-27T08:06:53.986Z,15.278406826761755
2023-07-27T08:10:12.947Z,15.278954750419468
2023-07-27T08:13:32.327Z,15.347067690855702
2023-07-27T08:16:52.642Z,15.416271235318797
2023-07-27T08:20:12.795Z,15.478410759228193
2023-07-27T08:23:31.900Z,15.526482539849006
2023-07-27T08:26:51.339Z,15.554193320050336
2023-07-27T08:30:10.823Z,15.655420249580537
2023-07-27T08:33:31.126Z,15.713865876677858
2023-07-27T08:36:50.282Z,15.710962405620819
2023-07-27T08:40:10.560Z,15.825104865771822
2023-07-27T08:43:29.956Z,15.868145710989943
2023-07-27T08:46:50.054Z,15.834251782718116
2023-07-27T08:50:09.307Z,15.7053861682047
2023-07-27T08:53:28.577Z,15.661127569211414
2023-07-27T08:58:57.997Z,15.627442061661075
2023-07-27T09:03:51.478Z,15.592450975251685
2023-07-27T09:07:11.048Z,15.645199769295305
2023-07-27T09:10:31.332Z,15.70114828020134
2023-07-27T09:16:59.899Z,15.727157613255036
2023-07-27T09:20:19.384Z,15.807682728607382
2023-07-27T09:23:38.276Z,15.855417627936239
2023-07-27T09:26:57.856Z,15.903801384228181
2023-07-27T09:30:16.830Z,15.916736577181208
2023-07-27T09:33:37.363Z,15.899294777684574
2023-07-27T09:36:56.796Z,16.01127438129194
2023-07-27T09:40:15.657Z,16.005281302432877
2023-07-27T09:43:35.428Z,16.029015048238243
2023-07-27T09:46:55.865Z,16.09530332424497
2023-07-27T09:50:15.312Z,16.058104813338907
2023-07-27T09:53:35.613Z,16.03273647231543
2023-07-27T09:56:55.168Z,16.01887714974831
2023-07-27T10:00:14.151Z,16.020076552013403
2023-07-27T10:03:34.176Z,16.034120700503344
2023-07-27T10:08:00.673Z,16.0928258703859
2023-07-27T10:11:19.532Z,16.1695011010906
2023-07-27T10:14:55.090Z,16.121078020134224
2023-07-27T10:18:14.157Z,16.040556837248314
2023-07-27T10:21:33.164Z,16.02610240142617
2023-07-27T10:24:53.024Z,15.97433148070468
2023-07-27T10:28:12.562Z,16.00754771392617
2023-07-27T10:31:32.822Z,16.047361315016765
2023-07-27T10:41:16.754Z,15.985659605704704
2023-07-27T10:46:39.191Z,15.909921612835557
2023-07-27T10:50:02.397Z,15.822999685402682
2023-07-27T10:55:47.248Z,15.77380846266779
2023-07-27T10:59:07.255Z,15.723221214345639
2023-07-27T11:02:26.608Z,15.8398988045302
2023-07-27T11:05:46.170Z,15.904800230704707
2023-07-27T11:10:12.052Z,15.913074140100672
2023-07-27T11:13:31.295Z,15.960666159815425
2023-07-27T11:16:50.584Z,16.003075188758377
2023-07-27T11:20:10.159Z,15.936206218540272
2023-07-27T11:23:30.222Z,15.957758756291947
2023-07-27T11:26:50.006Z,15.966078544463077
2023-07-27T11:30:22.383Z,16.00665373322148
2023-07-27T11:33:42.273Z,15.989396759647637
2023-07-27T11:37:02.154Z,15.949157141359061
2023-07-27T11:40:35.806Z,15.948070469798656
2023-07-27T11:43:55.532Z,15.94071413590604
2023-07-27T11:48:35.723Z,15.845950870385908
2023-07-27T11:51:55.276Z,15.880190855704708
2023-07-27T11:55:14.026Z,15.85073537122483
2023-07-27T11:58:32.790Z,15.868352820889267
2023-07-27T12:01:52.806Z,15.92286467072147
2023-07-27T12:05:12.153Z,15.983317166526843
2023-07-27T12:19:22.140Z,16.296945784395977
2023-07-27T12:22:42.268Z,16.350250367030227
2023-07-27T12:32:47.465Z,16.29502542994968
2023-07-27T12:36:06.406Z,16.30103948196309
2023-07-27T12:39:25.975Z,16.300519085570492
2023-07-27T12:42:45.674Z,16.266530778104045
2023-07-27T12:46:29.741Z,16.27090499161076
2023-07-27T12:49:48.978Z,16.29543702810405
2023-07-27T12:53:07.845Z,16.298015415268463
2023-07-27T12:56:27.430Z,16.299036545721485
2023-07-27T13:01:39.079Z,16.357743026426185
2023-07-27T13:04:59.138Z,16.420998059983212
2023-07-27T13:09:24.740Z,16.495735895553683
2023-07-27T13:12:44.524Z,16.520355757130876
2023-07-27T13:16:04.144Z,16.51708656669463
2023-07-27T13:19:23.584Z,16.493996434563762
2023-07-27T13:22:43.869Z,16.506579016359062
2023-07-27T13:26:03.429Z,16.511164272231532
2023-07-27T13:29:22.817Z,16.481044200922817
2023-07-27T13:33:06.189Z,16.467048552852344
2023-07-27T13:37:41.095Z,16.356960465604026
2023-07-27T13:41:00.870Z,16.29431103187922
2023-07-27T13:44:20.647Z,16.21421717701344
2023-07-27T13:47:47.238Z,16.229511849832228
2023-07-27T13:51:13.016Z,16.307092858640935
2023-07-27T13:56:51.790Z,16.357471686241617
2023-07-27T14:00:14.322Z,16.391272546140947
2023-07-27T14:03:34.811Z,16.447510748741603
2023-07-27T14:06:54.171Z,16.475197934144294
2023-07-27T14:10:13.232Z,16.53617606963087
2023-07-27T14:13:32.813Z,16.53184511325503
2023-07-27T14:16:52.805Z,16.523107172818786
2023-07-27T14:20:11.870Z,16.52144767197986
2023-07-27T14:23:31.768Z,16.510928324244965
2023-07-27T14:26:52.049Z,16.51281197567114
2023-07-27T14:30:11.650Z,16.534448406040276
2023-07-27T14:33:31.502Z,16.60333997483221
2023-07-27T14:36:50.466Z,16.640718068372486
2023-07-27T14:40:10.231Z,16.59962772651006
2023-07-27T14:43:58.288Z,16.600176960989927
2023-07-27T14:47:17.250Z,16.60619101300335
2023-07-27T14:50:39.873Z,16.636878670302018
2023-07-27T14:57:19.797Z,16.71469562709733
2023-07-27T15:00:39.968Z,16.752162856543624
2023-07-27T15:03:59.958Z,16.770410811661062
2023-07-27T15:09:29.063Z,16.84069709521811
2023-07-27T15:12:48.853Z,16.83351247902684
2023-07-27T15:16:07.821Z,16.856780882969797
2023-07-27T15:19:28.107Z,16.951457634228195
2023-07-27T15:22:47.491Z,16.999132235738262
2023-07-27T15:26:07.577Z,17.049453387164423
2023-07-27T15:29:26.736Z,17.045292837667777
2023-07-27T15:32:46.672Z,17.064801803691275
2023-07-27T15:37:45.422Z,17.02379273280202
2023-07-27T15:41:05.096Z,17.02351221686242
2023-07-27T15:46:22.548Z,17.052815645973155
2023-07-27T15:49:41.501Z,17.08723390310401
2023-07-27T15:53:00.923Z,17.10445679530199
2023-07-27T15:56:20.046Z,17.13741348573823
2023-07-27T15:59:39.826Z,17.152069788171126
2023-07-27T16:02:58.592Z,17.133349937080514
2023-07-27T16:06:18.570Z,17.14553271812079
2023-07-27T16:09:38.867Z,17.14581061241611
2023-07-27T16:14:05.105Z,17.147450450922797
2023-07-27T16:17:24.995Z,17.15452495805368
2023-07-27T16:20:44.495Z,17.171548605285228
2023-07-27T16:25:52.059Z,17.226951814177834
2023-07-27T16:29:11.769Z,17.252447304949662
2023-07-27T16:32:31.143Z,17.271506658976485
2023-07-27T16:35:51.008Z,17.27154860528522
2023-07-27T16:39:10.384Z,17.242773437499988
2023-07-27T16:42:30.261Z,17.23789193582213
2023-07-27T16:45:49.524Z,17.263868498322143
2023-07-27T16:49:09.716Z,17.258116610738234
2023-07-27T16:52:29.404Z,17.280061084312095
2023-07-27T16:55:49.278Z,17.30090971057049
2023-07-27T16:59:08.339Z,17.330429425335584
2023-07-27T17:02:29.216Z,17.341723468959746
2023-07-27T17:07:01.337Z,17.34838899958055
2023-07-27T17:10:35.809Z,17.31844851090605
2023-07-27T17:13:56.061Z,17.26394845847313
2023-07-27T17:17:15.546Z,17.243283347315415
2023-07-27T17:20:34.833Z,17.25998846476509
2023-07-27T17:23:54.687Z,17.277638684983213
2023-07-27T17:28:30.186Z,17.286488045302026
2023-07-27T17:31:49.946Z,17.329607539848983
2023-07-27T17:35:09.393Z,17.350453544463097
2023-07-27T17:38:29.083Z,17.367634490352366
2023-07-27T17:41:49.054Z,17.36937264052015
2023-07-27T17:45:08.543Z,17.37923526635908
2023-07-27T17:48:27.907Z,17.370319054110748
2023-07-27T17:51:48.084Z,17.3596633808725
2023-07-27T18:03:53.385Z,17.29653680788592
2023-07-27T18:07:13.287Z,17.271367711828855
2023-07-27T18:10:32.960Z,17.274984270134215
2023-07-27T18:13:51.716Z,17.273573825503334
2023-07-27T18:17:10.387Z,17.263930106963077
2023-07-27T18:20:29.551Z,17.229291631711387
2023-07-27T18:23:49.026Z,17.237617973993277
2023-07-27T18:28:06.559Z,17.259972734899304
2023-07-27T18:31:26.806Z,17.27338244546979
2023-07-27T18:34:46.432Z,17.279365037751656
2023-07-27T18:41:15.868Z,17.250743236157692
2023-07-27T18:44:38.024Z,17.2382982906879
2023-07-27T18:47:57.496Z,17.246939230285214
2023-07-27T18:51:35.026Z,17.253507760067105
2023-07-27T18:54:55.144Z,17.256947357382533
2023-07-27T18:58:14.372Z,17.257297346895967
2023-07-27T19:01:34.385Z,17.24077705536911
2023-07-27T19:04:54.563Z,17.226046036073804
2023-07-27T19:08:15.017Z,17.259468068372485
2023-07-27T19:11:34.729Z,17.272821413590595
2023-07-27T19:14:55.825Z,17.25595506501677
2023-07-27T19:18:19.249Z,17.285641254194616
2023-07-27T19:21:41.073Z,17.286575870385917
2023-07-27T19:25:01.579Z,17.293010696308727
2023-07-27T19:28:20.993Z,17.246345427852326
2023-07-27T19:31:40.895Z,17.237273227768448
2023-07-27T19:35:00.468Z,17.234135119546984
2023-07-27T19:38:20.325Z,17.223614460989932
2023-07-27T19:41:40.078Z,17.231277527265092
2023-07-27T19:45:00.215Z,17.23053166946308
2023-07-27T19:48:20.046Z,17.20829095008387
2023-07-27T19:51:40.416Z,17.208838873741602
2023-07-27T19:55:00.640Z,17.217306784815406
2023-07-27T19:58:20.894Z,17.19821728187918
2023-07-27T20:01:41.115Z,17.204372902684554
2023-07-27T20:05:01.593Z,17.20881134647649
2023-07-27T20:08:32.112Z,17.209832476929506
2023-07-27T20:12:01.245Z,17.199592334312065
2023-07-27T20:15:21.337Z,17.201482539848985
2023-07-27T20:18:41.343Z,17.185860161493284
2023-07-27T20:22:01.543Z,17.17199690645972
2023-07-27T20:25:21.303Z,17.201272808305355
2023-07-27T20:28:41.732Z,17.186136744966433
2023-07-27T20:32:01.199Z,17.185590132130855
2023-07-27T20:35:20.558Z,17.18716311870805
2023-07-27T20:38:40.782Z,17.19890677432884
2023-07-27T20:42:00.517Z,17.208121854026846
2023-07-27T20:45:20.831Z,17.216342019714755
2023-07-27T20:48:40.449Z,17.224678848573816
2023-07-27T20:52:20.655Z,17.21366138842281
2023-07-27T20:55:40.104Z,17.22326184983219
2023-07-27T20:58:59.806Z,17.241331533137558
2023-07-27T21:02:19.380Z,17.26366401006711
2023-07-27T21:05:38.513Z,17.26790058724831
2023-07-27T21:08:58.543Z,17.25560245385905
2023-07-27T21:12:18.450Z,17.254711094798648
2023-07-27T21:15:38.815Z,17.241951552013415
2023-07-27T21:18:58.811Z,17.258604236577163
2023-07-27T21:26:44.933Z,17.317183567533583
2023-07-27T21:30:04.129Z,17.34271182885907
2023-07-27T21:33:28.562Z,17.330155463506724
2023-07-27T21:36:50.757Z,17.35898699664431
2023-07-27T21:40:13.993Z,17.38042024958054
2023-07-27T21:43:36.268Z,17.38105337667787
2023-07-27T21:46:57.041Z,17.386267827181214
2023-07-27T21:50:16.054Z,17.375744546979874
2023-07-27T21:53:37.915Z,17.390120333473163
2023-07-27T21:56:57.711Z,17.41286440855706
2023-07-27T22:00:17.565Z,17.409839031040296
2023-07-27T22:03:37.741Z,17.411156407298662
2023-07-27T22:06:57.967Z,17.409291107382543
2023-07-27T22:10:18.174Z,17.419453911493303
2023-07-27T22:13:37.901Z,17.420202390939615
2023-07-27T22:16:58.044Z,17.40116138842282
2023-07-27T22:20:17.413Z,17.41245281040269
2023-07-27T22:23:37.406Z,17.422179110738274
2023-07-27T22:26:56.362Z,17.409078754194635
2023-07-27T22:30:15.773Z,17.395902369966453
2023-07-27T22:35:17.909Z,17.37261823615772
2023-07-27T22:41:09.701Z,17.371749161073836
2023-07-27T22:44:29.341Z,17.380915740352375
2023-07-27T22:47:49.540Z,17.386549653942946
2023-07-27T22:51:31.137Z,17.374847944630883
2023-07-27T22:54:50.999Z,17.37263789848995
2023-07-27T22:58:10.279Z,17.379777946728208
2023-07-27T23:01:30.197Z,17.387745123741617
2023-07-27T23:04:49.868Z,17.387025482382548
2023-07-27T23:08:09.087Z,17.402331952600683
2023-07-27T23:11:28.242Z,17.401989828020135
2023-07-27T23:14:48.461Z,17.413349412751685
2023-07-27T23:18:08.341Z,17.41572069001679
2023-07-27T23:21:27.922Z,17.4024014261745
2023-07-27T23:24:47.097Z,17.38236419882552
2023-07-27T23:28:07.138Z,17.41534710570472
2023-07-27T23:31:26.948Z,17.417727558724852
2023-07-27T23:36:49.877Z,17.425500734060403
2023-07-27T23:40:43.512Z,17.42426593959733
2023-07-27T23:44:12.042Z,17.451578229865788
2023-07-27T23:47:31.902Z,17.43163013842284
2023-07-27T23:51:02.774Z,17.40213532927851
2023-07-27T23:54:23.228Z,17.40177878565437
2023-07-27T23:57:42.748Z,17.42553219379195
